sensor_id;sensor_type;location;lat;lon;timestamp;temperature;humidity
33811;DHT22;20119;48.334;16.206;2022-09-09T00:02:17;12.50;99.90
33811;DHT22;20119;48.334;16.206;2022-09-09T00:04:45;12.60;99.90
33811;DHT22;20119;48.334;16.206;2022-09-09T00:07:18;12.70;99.90
33811;DHT22;20119;48.334;16.206;2022-09-09T00:09:48;12.60;99.90
33811;DHT22;20119;48.334;16.206;2022-09-09T00:12:22;12.50;99.90
33811;DHT22;20119;48.334;16.206;2022-09-09T00:14:50;12.50;99.90
33811;DHT22;20119;48.334;16.206;2022-09-09T00:17:20;12.60;99.90
33811;DHT22;20119;48.334;16.206;2022-09-09T00:19:53;12.50;99.90
33811;DHT22;20119;48.334;16.206;2022-09-09T00:22:24;12.50;99.90
33811;DHT22;20119;48.334;16.206;2022-09-09T00:24:54;12.50;99.90
33811;DHT22;20119;48.334;16.206;2022-09-09T00:27:23;12.50;99.90
33811;DHT22;20119;48.334;16.206;2022-09-09T00:29:55;12.50;99.90
33811;DHT22;20119;48.334;16.206;2022-09-09T00:32:24;12.40;99.90
33811;DHT22;20119;48.334;16.206;2022-09-09T00:34:55;12.30;99.90
33811;DHT22;20119;48.334;16.206;2022-09-09T00:37:22;12.30;99.90
33811;DHT22;20119;48.334;16.206;2022-09-09T00:39:50;12.30;99.90
33811;DHT22;20119;48.334;16.206;2022-09-09T00:42:23;12.30;99.90
33811;DHT22;20119;48.334;16.206;2022-09-09T00:44:55;12.20;99.90
33811;DHT22;20119;48.334;16.206;2022-09-09T00:47:34;12.20;99.90
33811;DHT22;20119;48.334;16.206;2022-09-09T00:50:08;12.30;99.90
33811;DHT22;20119;48.334;16.206;2022-09-09T00:52:39;12.30;99.90
33811;DHT22;20119;48.334;16.206;2022-09-09T00:55:11;12.30;99.90
33811;DHT22;20119;48.334;16.206;2022-09-09T00:57:46;12.20;99.90
33811;DHT22;20119;48.334;16.206;2022-09-09T01:00:16;12.20;99.90
33811;DHT22;20119;48.334;16.206;2022-09-09T01:02:48;12.20;99.90
33811;DHT22;20119;48.334;16.206;2022-09-09T01:05:20;12.10;99.90
33811;DHT22;20119;48.334;16.206;2022-09-09T01:07:49;12.10;99.90
33811;DHT22;20119;48.334;16.206;2022-09-09T01:10:21;12.20;99.90
33811;DHT22;20119;48.334;16.206;2022-09-09T01:12:52;12.10;99.90
33811;DHT22;20119;48.334;16.206;2022-09-09T01:15:21;12.10;99.90
33811;DHT22;20119;48.334;16.206;2022-09-09T01:17:51;12.10;99.90
33811;DHT22;20119;48.334;16.206;2022-09-09T01:20:21;12.00;99.90
33811;DHT22;20119;48.334;16.206;2022-09-09T01:22:56;12.10;99.90
33811;DHT22;20119;48.334;16.206;2022-09-09T01:28:16;12.00;99.90
33811;DHT22;20119;48.334;16.206;2022-09-09T01:30:44;12.00;99.90
33811;DHT22;20119;48.334;16.206;2022-09-09T01:33:13;11.90;99.90
33811;DHT22;20119;48.334;16.206;2022-09-09T01:35:43;11.90;99.90
33811;DHT22;20119;48.334;16.206;2022-09-09T01:38:14;11.90;99.90
33811;DHT22;20119;48.334;16.206;2022-09-09T01:40:42;11.90;99.90
33811;DHT22;20119;48.334;16.206;2022-09-09T01:43:09;11.70;99.90
33811;DHT22;20119;48.334;16.206;2022-09-09T01:45:37;11.70;99.90
33811;DHT22;20119;48.334;16.206;2022-09-09T01:48:05;11.70;99.90
33811;DHT22;20119;48.334;16.206;2022-09-09T01:50:32;11.70;99.90
33811;DHT22;20119;48.334;16.206;2022-09-09T01:53:00;11.80;99.90
33811;DHT22;20119;48.334;16.206;2022-09-09T01:55:29;11.80;99.90
33811;DHT22;20119;48.334;16.206;2022-09-09T01:58:00;11.70;99.90
33811;DHT22;20119;48.334;16.206;2022-09-09T02:00:32;11.70;99.90
33811;DHT22;20119;48.334;16.206;2022-09-09T02:03:04;11.60;99.90
33811;DHT22;20119;48.334;16.206;2022-09-09T02:05:34;11.60;99.90
33811;DHT22;20119;48.334;16.206;2022-09-09T02:08:05;11.60;99.90
33811;DHT22;20119;48.334;16.206;2022-09-09T02:10:36;11.60;99.90
33811;DHT22;20119;48.334;16.206;2022-09-09T02:13:07;11.50;99.90
33811;DHT22;20119;48.334;16.206;2022-09-09T02:15:38;11.50;99.90
33811;DHT22;20119;48.334;16.206;2022-09-09T02:18:11;11.60;99.90
33811;DHT22;20119;48.334;16.206;2022-09-09T02:20:39;11.60;99.90
33811;DHT22;20119;48.334;16.206;2022-09-09T02:23:07;11.70;99.90
33811;DHT22;20119;48.334;16.206;2022-09-09T02:25:35;11.80;99.90
33811;DHT22;20119;48.334;16.206;2022-09-09T02:28:03;11.90;99.90
33811;DHT22;20119;48.334;16.206;2022-09-09T02:30:31;11.80;99.90
33811;DHT22;20119;48.334;16.206;2022-09-09T02:32:59;11.80;99.90
33811;DHT22;20119;48.334;16.206;2022-09-09T02:35:29;11.70;99.90
33811;DHT22;20119;48.334;16.206;2022-09-09T02:37:58;11.70;99.90
33811;DHT22;20119;48.334;16.206;2022-09-09T02:40:26;11.70;99.90
33811;DHT22;20119;48.334;16.206;2022-09-09T02:42:54;11.60;99.90
33811;DHT22;20119;48.334;16.206;2022-09-09T02:45:22;11.60;99.90
33811;DHT22;20119;48.334;16.206;2022-09-09T02:47:51;11.60;99.90
33811;DHT22;20119;48.334;16.206;2022-09-09T02:50:23;11.50;99.90
33811;DHT22;20119;48.334;16.206;2022-09-09T02:52:59;11.40;99.90
33811;DHT22;20119;48.334;16.206;2022-09-09T02:55:31;11.30;99.90
33811;DHT22;20119;48.334;16.206;2022-09-09T02:58:00;11.30;99.90
33811;DHT22;20119;48.334;16.206;2022-09-09T03:00:29;11.30;99.90
33811;DHT22;20119;48.334;16.206;2022-09-09T03:02:57;11.30;99.90
33811;DHT22;20119;48.334;16.206;2022-09-09T03:05:25;11.30;99.90
33811;DHT22;20119;48.334;16.206;2022-09-09T03:07:54;11.30;99.90
33811;DHT22;20119;48.334;16.206;2022-09-09T03:10:26;11.20;99.90
33811;DHT22;20119;48.334;16.206;2022-09-09T03:12:54;11.10;99.90
33811;DHT22;20119;48.334;16.206;2022-09-09T03:15:22;11.10;99.90
33811;DHT22;20119;48.334;16.206;2022-09-09T03:17:49;11.10;99.90
33811;DHT22;20119;48.334;16.206;2022-09-09T03:20:17;11.10;99.90
33811;DHT22;20119;48.334;16.206;2022-09-09T03:22:45;11.10;99.90
33811;DHT22;20119;48.334;16.206;2022-09-09T03:25:12;11.10;99.90
33811;DHT22;20119;48.334;16.206;2022-09-09T03:27:41;11.10;99.90
33811;DHT22;20119;48.334;16.206;2022-09-09T03:30:09;11.10;99.90
33811;DHT22;20119;48.334;16.206;2022-09-09T03:32:36;11.20;99.90
33811;DHT22;20119;48.334;16.206;2022-09-09T03:35:03;11.10;99.90
33811;DHT22;20119;48.334;16.206;2022-09-09T03:37:31;11.00;99.90
33811;DHT22;20119;48.334;16.206;2022-09-09T03:39:58;11.00;99.90
33811;DHT22;20119;48.334;16.206;2022-09-09T03:42:25;11.10;99.90
33811;DHT22;20119;48.334;16.206;2022-09-09T03:44:54;11.30;99.90
33811;DHT22;20119;48.334;16.206;2022-09-09T03:47:23;11.30;99.90
33811;DHT22;20119;48.334;16.206;2022-09-09T03:49:51;11.30;99.90
33811;DHT22;20119;48.334;16.206;2022-09-09T03:52:17;11.20;99.90
33811;DHT22;20119;48.334;16.206;2022-09-09T03:54:47;11.10;99.90
33811;DHT22;20119;48.334;16.206;2022-09-09T03:57:14;11.00;99.90
33811;DHT22;20119;48.334;16.206;2022-09-09T03:59:42;11.00;99.90
33811;DHT22;20119;48.334;16.206;2022-09-09T04:02:11;11.00;99.90
33811;DHT22;20119;48.334;16.206;2022-09-09T04:04:38;11.00;99.90
33811;DHT22;20119;48.334;16.206;2022-09-09T04:07:05;10.90;99.90
33811;DHT22;20119;48.334;16.206;2022-09-09T04:09:32;10.90;99.90
33811;DHT22;20119;48.334;16.206;2022-09-09T04:12:00;10.90;99.90
33811;DHT22;20119;48.334;16.206;2022-09-09T04:14:27;10.90;99.90
33811;DHT22;20119;48.334;16.206;2022-09-09T04:16:55;10.80;99.90
33811;DHT22;20119;48.334;16.206;2022-09-09T04:19:24;10.80;99.90
33811;DHT22;20119;48.334;16.206;2022-09-09T04:21:51;10.90;99.90
33811;DHT22;20119;48.334;16.206;2022-09-09T04:24:18;10.90;99.90
33811;DHT22;20119;48.334;16.206;2022-09-09T04:26:46;11.00;99.90
33811;DHT22;20119;48.334;16.206;2022-09-09T04:29:13;10.90;99.90
33811;DHT22;20119;48.334;16.206;2022-09-09T04:31:40;10.80;99.90
33811;DHT22;20119;48.334;16.206;2022-09-09T04:34:08;10.70;99.90
33811;DHT22;20119;48.334;16.206;2022-09-09T04:36:36;10.70;99.90
33811;DHT22;20119;48.334;16.206;2022-09-09T04:39:05;10.70;99.90
33811;DHT22;20119;48.334;16.206;2022-09-09T04:41:32;10.70;99.90
33811;DHT22;20119;48.334;16.206;2022-09-09T04:44:00;10.70;99.90
33811;DHT22;20119;48.334;16.206;2022-09-09T04:46:28;10.80;99.90
33811;DHT22;20119;48.334;16.206;2022-09-09T04:48:54;10.80;99.90
33811;DHT22;20119;48.334;16.206;2022-09-09T04:51:22;10.70;99.90
33811;DHT22;20119;48.334;16.206;2022-09-09T04:53:51;10.70;99.90
33811;DHT22;20119;48.334;16.206;2022-09-09T04:56:19;10.70;99.90
33811;DHT22;20119;48.334;16.206;2022-09-09T04:58:46;10.70;99.90
33811;DHT22;20119;48.334;16.206;2022-09-09T05:01:13;10.80;99.90
33811;DHT22;20119;48.334;16.206;2022-09-09T05:03:40;10.80;99.90
33811;DHT22;20119;48.334;16.206;2022-09-09T05:06:08;10.80;99.90
33811;DHT22;20119;48.334;16.206;2022-09-09T05:08:35;11.00;99.90
33811;DHT22;20119;48.334;16.206;2022-09-09T05:11:11;11.30;99.90
33811;DHT22;20119;48.334;16.206;2022-09-09T05:13:40;11.60;99.90
33811;DHT22;20119;48.334;16.206;2022-09-09T05:16:07;11.90;99.90
33811;DHT22;20119;48.334;16.206;2022-09-09T05:18:36;12.40;99.90
33811;DHT22;20119;48.334;16.206;2022-09-09T05:21:03;12.90;99.90
33811;DHT22;20119;48.334;16.206;2022-09-09T05:23:30;12.90;99.90
33811;DHT22;20119;48.334;16.206;2022-09-09T05:25:59;13.30;99.90
33811;DHT22;20119;48.334;16.206;2022-09-09T05:28:27;13.50;99.90
33811;DHT22;20119;48.334;16.206;2022-09-09T05:30:56;13.90;99.90
33811;DHT22;20119;48.334;16.206;2022-09-09T05:33:25;14.30;99.90
33811;DHT22;20119;48.334;16.206;2022-09-09T05:35:58;14.70;99.90
33811;DHT22;20119;48.334;16.206;2022-09-09T05:38:25;14.80;99.90
33811;DHT22;20119;48.334;16.206;2022-09-09T05:40:53;15.40;99.90
33811;DHT22;20119;48.334;16.206;2022-09-09T05:43:21;16.50;99.90
33811;DHT22;20119;48.334;16.206;2022-09-09T05:45:58;17.30;99.90
33811;DHT22;20119;48.334;16.206;2022-09-09T05:48:27;17.80;99.90
33811;DHT22;20119;48.334;16.206;2022-09-09T05:50:54;18.10;99.90
33811;DHT22;20119;48.334;16.206;2022-09-09T05:53:21;17.90;99.90
33811;DHT22;20119;48.334;16.206;2022-09-09T05:55:48;18.40;99.90
33811;DHT22;20119;48.334;16.206;2022-09-09T05:58:15;18.40;99.90
33811;DHT22;20119;48.334;16.206;2022-09-09T06:00:42;18.10;99.90
33811;DHT22;20119;48.334;16.206;2022-09-09T06:03:12;17.70;99.90
33811;DHT22;20119;48.334;16.206;2022-09-09T06:05:39;17.20;99.90
33811;DHT22;20119;48.334;16.206;2022-09-09T06:08:06;16.90;99.90
33811;DHT22;20119;48.334;16.206;2022-09-09T06:10:33;16.90;99.90
33811;DHT22;20119;48.334;16.206;2022-09-09T06:13:01;17.30;99.90
33811;DHT22;20119;48.334;16.206;2022-09-09T06:15:28;17.30;99.90
33811;DHT22;20119;48.334;16.206;2022-09-09T06:17:55;17.90;99.90
33811;DHT22;20119;48.334;16.206;2022-09-09T06:20:24;18.90;99.90
33811;DHT22;20119;48.334;16.206;2022-09-09T06:22:51;19.80;99.90
33811;DHT22;20119;48.334;16.206;2022-09-09T06:25:19;20.30;99.90
33811;DHT22;20119;48.334;16.206;2022-09-09T06:27:48;20.10;99.90
33811;DHT22;20119;48.334;16.206;2022-09-09T06:30:16;21.20;99.90
33811;DHT22;20119;48.334;16.206;2022-09-09T06:32:43;21.50;99.90
33811;DHT22;20119;48.334;16.206;2022-09-09T06:35:11;21.50;99.90
33811;DHT22;20119;48.334;16.206;2022-09-09T06:37:44;20.70;99.90
33811;DHT22;20119;48.334;16.206;2022-09-09T06:40:10;20.70;99.90
33811;DHT22;20119;48.334;16.206;2022-09-09T06:42:37;21.30;99.90
33811;DHT22;20119;48.334;16.206;2022-09-09T06:45:04;22.80;99.90
33811;DHT22;20119;48.334;16.206;2022-09-09T06:47:32;21.50;99.90
33811;DHT22;20119;48.334;16.206;2022-09-09T06:49:59;21.40;99.90
33811;DHT22;20119;48.334;16.206;2022-09-09T06:52:26;20.50;99.90
33811;DHT22;20119;48.334;16.206;2022-09-09T06:54:55;20.00;99.90
33811;DHT22;20119;48.334;16.206;2022-09-09T06:57:23;19.90;99.90
33811;DHT22;20119;48.334;16.206;2022-09-09T06:59:50;19.40;99.90
33811;DHT22;20119;48.334;16.206;2022-09-09T07:02:17;19.20;99.90
33811;DHT22;20119;48.334;16.206;2022-09-09T07:04:44;18.50;99.90
33811;DHT22;20119;48.334;16.206;2022-09-09T07:07:12;18.40;99.90
33811;DHT22;20119;48.334;16.206;2022-09-09T07:09:40;18.60;99.90
33811;DHT22;20119;48.334;16.206;2022-09-09T07:12:09;18.80;99.90
33811;DHT22;20119;48.334;16.206;2022-09-09T07:14:35;18.70;99.90
33811;DHT22;20119;48.334;16.206;2022-09-09T07:17:03;19.10;99.90
33811;DHT22;20119;48.334;16.206;2022-09-09T07:19:30;19.60;99.90
33811;DHT22;20119;48.334;16.206;2022-09-09T07:21:56;20.10;99.90
33811;DHT22;20119;48.334;16.206;2022-09-09T07:24:23;20.40;99.90
33811;DHT22;20119;48.334;16.206;2022-09-09T07:26:51;20.70;99.90
33811;DHT22;20119;48.334;16.206;2022-09-09T07:29:19;20.70;99.90
33811;DHT22;20119;48.334;16.206;2022-09-09T07:31:46;21.20;99.90
33811;DHT22;20119;48.334;16.206;2022-09-09T07:34:13;21.50;99.90
33811;DHT22;20119;48.334;16.206;2022-09-09T07:36:40;21.70;99.90
33811;DHT22;20119;48.334;16.206;2022-09-09T07:39:08;22.20;99.90
33811;DHT22;20119;48.334;16.206;2022-09-09T07:41:36;23.30;99.90
33811;DHT22;20119;48.334;16.206;2022-09-09T07:44:04;23.60;99.90
33811;DHT22;20119;48.334;16.206;2022-09-09T07:46:33;24.20;99.90
33811;DHT22;20119;48.334;16.206;2022-09-09T07:49:00;24.70;99.90
33811;DHT22;20119;48.334;16.206;2022-09-09T07:51:28;24.80;99.90
33811;DHT22;20119;48.334;16.206;2022-09-09T07:53:58;24.70;99.90
33811;DHT22;20119;48.334;16.206;2022-09-09T07:56:25;24.00;99.90
33811;DHT22;20119;48.334;16.206;2022-09-09T07:58:54;23.40;99.90
33811;DHT22;20119;48.334;16.206;2022-09-09T08:01:22;22.90;99.90
33811;DHT22;20119;48.334;16.206;2022-09-09T08:03:54;23.10;99.90
33811;DHT22;20119;48.334;16.206;2022-09-09T08:06:24;22.70;99.90
33811;DHT22;20119;48.334;16.206;2022-09-09T08:08:52;23.10;99.90
33811;DHT22;20119;48.334;16.206;2022-09-09T08:11:20;23.70;99.90
33811;DHT22;20119;48.334;16.206;2022-09-09T08:13:48;24.00;99.90
33811;DHT22;20119;48.334;16.206;2022-09-09T08:16:16;25.30;99.90
33811;DHT22;20119;48.334;16.206;2022-09-09T08:18:44;26.20;99.90
33811;DHT22;20119;48.334;16.206;2022-09-09T08:21:14;25.70;99.90
33811;DHT22;20119;48.334;16.206;2022-09-09T08:23:43;25.60;99.90
33811;DHT22;20119;48.334;16.206;2022-09-09T08:26:11;25.30;99.90
33811;DHT22;20119;48.334;16.206;2022-09-09T08:28:40;23.70;99.90
33811;DHT22;20119;48.334;16.206;2022-09-09T08:31:07;23.10;99.90
33811;DHT22;20119;48.334;16.206;2022-09-09T08:33:35;23.40;99.90
33811;DHT22;20119;48.334;16.206;2022-09-09T08:36:04;22.90;99.90
33811;DHT22;20119;48.334;16.206;2022-09-09T08:38:32;22.50;99.90
33811;DHT22;20119;48.334;16.206;2022-09-09T08:41:03;22.50;99.90
33811;DHT22;20119;48.334;16.206;2022-09-09T08:43:33;22.60;99.90
33811;DHT22;20119;48.334;16.206;2022-09-09T08:46:02;22.10;99.90
33811;DHT22;20119;48.334;16.206;2022-09-09T08:48:36;23.00;99.90
33811;DHT22;20119;48.334;16.206;2022-09-09T08:51:07;24.10;99.90
33811;DHT22;20119;48.334;16.206;2022-09-09T08:53:38;23.90;99.90
33811;DHT22;20119;48.334;16.206;2022-09-09T08:56:09;24.80;99.90
33811;DHT22;20119;48.334;16.206;2022-09-09T08:58:41;25.70;99.90
33811;DHT22;20119;48.334;16.206;2022-09-09T09:01:14;25.10;99.90
33811;DHT22;20119;48.334;16.206;2022-09-09T09:03:47;24.60;99.90
33811;DHT22;20119;48.334;16.206;2022-09-09T09:06:19;25.50;99.90
33811;DHT22;20119;48.334;16.206;2022-09-09T09:08:55;24.70;99.90
33811;DHT22;20119;48.334;16.206;2022-09-09T09:11:24;25.10;99.90
33811;DHT22;20119;48.334;16.206;2022-09-09T09:13:52;25.30;99.90
33811;DHT22;20119;48.334;16.206;2022-09-09T09:16:22;26.60;99.90
33811;DHT22;20119;48.334;16.206;2022-09-09T09:18:50;26.70;99.90
33811;DHT22;20119;48.334;16.206;2022-09-09T09:21:19;26.70;99.90
33811;DHT22;20119;48.334;16.206;2022-09-09T09:23:51;26.30;99.90
33811;DHT22;20119;48.334;16.206;2022-09-09T09:26:23;25.60;99.90
33811;DHT22;20119;48.334;16.206;2022-09-09T09:28:52;25.50;99.90
33811;DHT22;20119;48.334;16.206;2022-09-09T09:31:20;25.40;99.90
33811;DHT22;20119;48.334;16.206;2022-09-09T09:33:49;25.50;99.90
33811;DHT22;20119;48.334;16.206;2022-09-09T09:36:18;25.90;99.90
33811;DHT22;20119;48.334;16.206;2022-09-09T09:38:51;24.40;99.90
33811;DHT22;20119;48.334;16.206;2022-09-09T09:41:29;23.70;99.90
33811;DHT22;20119;48.334;16.206;2022-09-09T09:43:57;23.70;99.90
33811;DHT22;20119;48.334;16.206;2022-09-09T09:46:26;24.00;99.90
33811;DHT22;20119;48.334;16.206;2022-09-09T09:48:56;24.50;99.90
33811;DHT22;20119;48.334;16.206;2022-09-09T09:51:23;25.00;99.90
33811;DHT22;20119;48.334;16.206;2022-09-09T09:53:51;25.30;99.90
33811;DHT22;20119;48.334;16.206;2022-09-09T09:56:25;25.50;99.90
33811;DHT22;20119;48.334;16.206;2022-09-09T09:58:54;24.60;99.90
33811;DHT22;20119;48.334;16.206;2022-09-09T10:01:22;24.30;99.90
33811;DHT22;20119;48.334;16.206;2022-09-09T10:03:50;23.90;99.90
33811;DHT22;20119;48.334;16.206;2022-09-09T10:06:28;23.80;99.90
33811;DHT22;20119;48.334;16.206;2022-09-09T10:08:55;23.90;99.90
33811;DHT22;20119;48.334;16.206;2022-09-09T10:11:26;23.60;99.90
33811;DHT22;20119;48.334;16.206;2022-09-09T10:13:58;23.50;99.90
33811;DHT22;20119;48.334;16.206;2022-09-09T10:19:14;23.50;99.90
33811;DHT22;20119;48.334;16.206;2022-09-09T10:21:56;24.00;99.90
33811;DHT22;20119;48.334;16.206;2022-09-09T10:24:37;24.20;99.90
33811;DHT22;20119;48.334;16.206;2022-09-09T10:27:10;23.50;99.90
33811;DHT22;20119;48.334;16.206;2022-09-09T10:29:43;23.40;99.90
33811;DHT22;20119;48.334;16.206;2022-09-09T10:32:29;23.30;99.90
33811;DHT22;20119;48.334;16.206;2022-09-09T10:35:01;23.50;99.90
33811;DHT22;20119;48.334;16.206;2022-09-09T10:37:37;23.90;99.90
33811;DHT22;20119;48.334;16.206;2022-09-09T10:40:13;24.00;99.90
33811;DHT22;20119;48.334;16.206;2022-09-09T10:42:42;24.90;99.90
33811;DHT22;20119;48.334;16.206;2022-09-09T10:45:15;25.10;99.90
33811;DHT22;20119;48.334;16.206;2022-09-09T10:47:47;25.00;99.90
33811;DHT22;20119;48.334;16.206;2022-09-09T10:50:23;25.20;99.90
33811;DHT22;20119;48.334;16.206;2022-09-09T10:52:54;24.80;99.90
33811;DHT22;20119;48.334;16.206;2022-09-09T10:55:24;25.20;99.90
33811;DHT22;20119;48.334;16.206;2022-09-09T10:57:53;25.00;99.90
33811;DHT22;20119;48.334;16.206;2022-09-09T11:00:23;24.80;99.90
33811;DHT22;20119;48.334;16.206;2022-09-09T11:02:51;25.20;99.90
33811;DHT22;20119;48.334;16.206;2022-09-09T11:05:19;25.70;99.90
33811;DHT22;20119;48.334;16.206;2022-09-09T11:07:47;25.30;99.90
33811;DHT22;20119;48.334;16.206;2022-09-09T11:10:17;25.00;99.90
33811;DHT22;20119;48.334;16.206;2022-09-09T11:12:46;25.40;99.90
33811;DHT22;20119;48.334;16.206;2022-09-09T11:15:16;25.50;99.90
33811;DHT22;20119;48.334;16.206;2022-09-09T11:17:46;25.90;99.90
33811;DHT22;20119;48.334;16.206;2022-09-09T11:20:15;26.00;99.90
33811;DHT22;20119;48.334;16.206;2022-09-09T11:22:43;26.20;99.90
33811;DHT22;20119;48.334;16.206;2022-09-09T11:25:15;26.30;99.90
33811;DHT22;20119;48.334;16.206;2022-09-09T11:27:43;26.10;99.90
33811;DHT22;20119;48.334;16.206;2022-09-09T11:30:15;25.40;99.90
33811;DHT22;20119;48.334;16.206;2022-09-09T11:35:31;24.70;99.90
33811;DHT22;20119;48.334;16.206;2022-09-09T11:38:07;24.40;99.90
33811;DHT22;20119;48.334;16.206;2022-09-09T11:40:38;24.70;99.90
33811;DHT22;20119;48.334;16.206;2022-09-09T11:43:09;25.00;99.90
33811;DHT22;20119;48.334;16.206;2022-09-09T11:45:38;25.10;99.90
33811;DHT22;20119;48.334;16.206;2022-09-09T11:48:20;24.70;99.90
33811;DHT22;20119;48.334;16.206;2022-09-09T11:50:58;24.60;99.90
33811;DHT22;20119;48.334;16.206;2022-09-09T11:53:26;24.40;99.90
33811;DHT22;20119;48.334;16.206;2022-09-09T11:56:06;24.30;99.90
33811;DHT22;20119;48.334;16.206;2022-09-09T11:58:36;24.40;99.90
33811;DHT22;20119;48.334;16.206;2022-09-09T12:03:50;24.10;99.90
33811;DHT22;20119;48.334;16.206;2022-09-09T12:06:27;24.10;99.90
33811;DHT22;20119;48.334;16.206;2022-09-09T12:08:58;24.10;99.90
33811;DHT22;20119;48.334;16.206;2022-09-09T12:11:31;24.00;99.90
33811;DHT22;20119;48.334;16.206;2022-09-09T12:13:58;24.30;99.90
33811;DHT22;20119;48.334;16.206;2022-09-09T12:16:33;24.40;99.90
33811;DHT22;20119;48.334;16.206;2022-09-09T12:19:03;24.60;99.90
33811;DHT22;20119;48.334;16.206;2022-09-09T12:21:33;24.40;99.90
33811;DHT22;20119;48.334;16.206;2022-09-09T12:24:05;24.00;99.90
33811;DHT22;20119;48.334;16.206;2022-09-09T12:26:35;24.00;99.90
33811;DHT22;20119;48.334;16.206;2022-09-09T12:29:05;24.00;99.90
33811;DHT22;20119;48.334;16.206;2022-09-09T12:31:36;24.10;99.90
33811;DHT22;20119;48.334;16.206;2022-09-09T12:34:09;24.10;99.90
33811;DHT22;20119;48.334;16.206;2022-09-09T12:36:38;24.30;99.90
33811;DHT22;20119;48.334;16.206;2022-09-09T12:39:10;24.00;99.90
33811;DHT22;20119;48.334;16.206;2022-09-09T12:41:37;24.10;99.90
33811;DHT22;20119;48.334;16.206;2022-09-09T12:44:04;24.20;99.90
33811;DHT22;20119;48.334;16.206;2022-09-09T12:46:34;24.30;99.90
33811;DHT22;20119;48.334;16.206;2022-09-09T12:49:02;24.40;99.90
33811;DHT22;20119;48.334;16.206;2022-09-09T12:51:30;24.00;99.90
33811;DHT22;20119;48.334;16.206;2022-09-09T12:53:59;24.40;99.90
33811;DHT22;20119;48.334;16.206;2022-09-09T12:56:27;24.20;99.90
33811;DHT22;20119;48.334;16.206;2022-09-09T12:58:56;24.20;99.90
33811;DHT22;20119;48.334;16.206;2022-09-09T13:01:24;24.10;99.90
33811;DHT22;20119;48.334;16.206;2022-09-09T13:03:52;24.10;99.90
33811;DHT22;20119;48.334;16.206;2022-09-09T13:06:20;24.20;99.90
33811;DHT22;20119;48.334;16.206;2022-09-09T13:08:48;24.00;99.90
33811;DHT22;20119;48.334;16.206;2022-09-09T13:11:18;24.10;99.90
33811;DHT22;20119;48.334;16.206;2022-09-09T13:13:50;23.80;99.90
33811;DHT22;20119;48.334;16.206;2022-09-09T13:16:18;23.60;99.90
33811;DHT22;20119;48.334;16.206;2022-09-09T13:18:46;23.40;99.90
33811;DHT22;20119;48.334;16.206;2022-09-09T13:21:14;23.50;99.90
33811;DHT22;20119;48.334;16.206;2022-09-09T13:23:41;23.40;99.90
33811;DHT22;20119;48.334;16.206;2022-09-09T13:26:20;23.30;99.90
33811;DHT22;20119;48.334;16.206;2022-09-09T13:28:48;23.30;99.90
33811;DHT22;20119;48.334;16.206;2022-09-09T13:31:19;22.90;99.90
33811;DHT22;20119;48.334;16.206;2022-09-09T13:33:47;22.80;99.90
33811;DHT22;20119;48.334;16.206;2022-09-09T13:36:15;22.60;99.90
33811;DHT22;20119;48.334;16.206;2022-09-09T13:38:52;22.50;99.90
33811;DHT22;20119;48.334;16.206;2022-09-09T13:41:22;22.40;99.90
33811;DHT22;20119;48.334;16.206;2022-09-09T13:43:50;22.30;99.90
33811;DHT22;20119;48.334;16.206;2022-09-09T13:46:25;22.10;99.90
33811;DHT22;20119;48.334;16.206;2022-09-09T13:48:53;22.00;99.90
33811;DHT22;20119;48.334;16.206;2022-09-09T13:51:22;21.70;99.90
33811;DHT22;20119;48.334;16.206;2022-09-09T13:53:53;21.70;99.90
33811;DHT22;20119;48.334;16.206;2022-09-09T13:56:21;21.70;99.90
33811;DHT22;20119;48.334;16.206;2022-09-09T13:58:48;21.70;99.90
33811;DHT22;20119;48.334;16.206;2022-09-09T14:01:15;21.10;99.90
33811;DHT22;20119;48.334;16.206;2022-09-09T14:03:43;20.90;99.90
33811;DHT22;20119;48.334;16.206;2022-09-09T14:06:09;20.40;99.90
33811;DHT22;20119;48.334;16.206;2022-09-09T14:08:37;20.20;99.90
33811;DHT22;20119;48.334;16.206;2022-09-09T14:11:04;20.10;99.90
33811;DHT22;20119;48.334;16.206;2022-09-09T14:13:32;20.00;99.90
33811;DHT22;20119;48.334;16.206;2022-09-09T14:15:59;19.90;99.90
33811;DHT22;20119;48.334;16.206;2022-09-09T14:18:26;19.80;99.90
33811;DHT22;20119;48.334;16.206;2022-09-09T14:20:53;19.70;99.90
33811;DHT22;20119;48.334;16.206;2022-09-09T14:23:20;19.20;99.90
33811;DHT22;20119;48.334;16.206;2022-09-09T14:25:48;19.00;99.90
33811;DHT22;20119;48.334;16.206;2022-09-09T14:28:15;18.90;99.90
33811;DHT22;20119;48.334;16.206;2022-09-09T14:30:43;18.80;99.90
33811;DHT22;20119;48.334;16.206;2022-09-09T14:33:11;18.80;99.90
33811;DHT22;20119;48.334;16.206;2022-09-09T14:35:39;18.50;99.90
33811;DHT22;20119;48.334;16.206;2022-09-09T14:38:07;18.40;99.90
33811;DHT22;20119;48.334;16.206;2022-09-09T14:40:34;18.30;99.90
33811;DHT22;20119;48.334;16.206;2022-09-09T14:43:01;18.30;99.90
33811;DHT22;20119;48.334;16.206;2022-09-09T14:45:29;18.30;99.90
33811;DHT22;20119;48.334;16.206;2022-09-09T14:47:58;18.20;99.90
33811;DHT22;20119;48.334;16.206;2022-09-09T14:50:25;18.30;99.90
33811;DHT22;20119;48.334;16.206;2022-09-09T14:52:53;18.30;99.90
33811;DHT22;20119;48.334;16.206;2022-09-09T14:55:21;18.20;99.90
33811;DHT22;20119;48.334;16.206;2022-09-09T14:57:49;18.30;99.90
33811;DHT22;20119;48.334;16.206;2022-09-09T15:00:16;18.40;99.90
33811;DHT22;20119;48.334;16.206;2022-09-09T15:02:43;18.40;99.90
33811;DHT22;20119;48.334;16.206;2022-09-09T15:05:11;18.30;99.90
33811;DHT22;20119;48.334;16.206;2022-09-09T15:07:38;18.20;99.90
33811;DHT22;20119;48.334;16.206;2022-09-09T15:10:06;18.20;99.90
33811;DHT22;20119;48.334;16.206;2022-09-09T15:12:33;18.30;99.90
33811;DHT22;20119;48.334;16.206;2022-09-09T15:15:01;18.30;99.90
33811;DHT22;20119;48.334;16.206;2022-09-09T15:17:28;18.30;99.90
33811;DHT22;20119;48.334;16.206;2022-09-09T15:19:56;18.40;99.90
33811;DHT22;20119;48.334;16.206;2022-09-09T15:22:24;18.30;99.90
33811;DHT22;20119;48.334;16.206;2022-09-09T15:24:51;18.20;99.90
33811;DHT22;20119;48.334;16.206;2022-09-09T15:27:18;18.20;99.90
33811;DHT22;20119;48.334;16.206;2022-09-09T15:29:45;18.20;99.90
33811;DHT22;20119;48.334;16.206;2022-09-09T15:32:12;18.00;99.90
33811;DHT22;20119;48.334;16.206;2022-09-09T15:34:39;18.10;99.90
33811;DHT22;20119;48.334;16.206;2022-09-09T15:37:09;18.00;99.90
33811;DHT22;20119;48.334;16.206;2022-09-09T15:39:38;18.00;99.90